This demonstration page uses our WeatherBlox Daily Observations layout. Learn more.

Left ArrowRight Arrow

Hourly Observations for July 28, 2020

Temp ( °F °C ) Dew Point ( °F °C ) Humidity (%) Winds ( mph kmh ) Pressure ( in mb ) Visibility ( mi km ) Precip ( " mm )
12:54 am 00:54 Clear 65 18.3 61 16.1 87 87 NNE 3 6 30.03 1017 10 16.0934 0 0
1:54 am 01:54 Clear 64 17.8 60 15.6 87 87 Calm 30.02 1017 10 16.0934 0 0
2:54 am 02:54 Clear 63 17.2 59 15 87 87 Calm 30.01 1016 10 16.0934 0 0
3:54 am 03:54 Clear 62 16.7 59 15 90 90 Calm 30.01 1016 10 16.0934 0 0
4:54 am 04:54 Clear 63 17.2 59 15 87 87 Calm 30 1016 10 16.0934 0 0
5:54 am 05:54 Clear 61 16.1 59 15 93 93 Calm 30.01 1016 10 16.0934 0 0
6:54 am 06:54 Sunny 62 16.7 59 15 90 90 Calm 30.02 1017 9 14.48406 0 0
7:54 am 07:54 Sunny 68 20 63 17.2 84 84 Calm 30.02 1017 9 14.48406 0 0
8:54 am 08:54 Sunny 74 23.3 69 20.6 85 85 S 6 9 30.01 1016 9 14.48406 0 0
9:54 am 09:54 Mostly Cloudy 78 25.6 69 20.6 74 74 S 13 20 30 1016 9 14.48406 0 0
10:03 am 10:03 Partly Cloudy 78 25.6 69 20.6 74 74 S 15 24 29.97 1015 9 14.48406 0 0
10:54 am 10:54 Partly Cloudy 81 27.2 70 21.1 69 69 SSW 10 17 29.99 1016 9 14.48406 0 0
11:54 am 11:54 Partly Cloudy 82 27.8 68 20 63 63 SSW 13 20 29.98 1015 9 14.48406 0 0
12:54 pm 12:54 Mostly Cloudy 84 28.9 68 20 59 59 S 12 19 29.98 1015 9 14.48406 0 0
1:54 pm 13:54 Partly Cloudy 85 29.4 68 20 57 57 SW 12 19 29.96 1015 9 14.48406 0 0
2:54 pm 14:54 Partly Cloudy 86 30 69 20.6 57 57 S 12 19 29.95 1014 10 16.0934 0 0
3:54 pm 15:54 Mostly Sunny 86 30 69 20.6 57 57 SSW 9 15 29.93 1014 10 16.0934 0 0
4:54 pm 16:54 Mostly Sunny 86 30 69 20.6 57 57 SW 9 15 29.91 1013 10 16.0934 0 0
5:54 pm 17:54 Sunny 85 29.4 68 20 57 57 S 8 13 29.89 1012 10 16.0934 0 0
7:54 pm 19:54 Sunny 84 28.9 70 21.1 63 63 S 7 11 29.87 1011 9 14.48406 0.001 0.001
8:54 pm 20:54 Clear 82 27.8 69 20.6 65 65 S 5 7 29.88 1012 10 16.0934 0 0
9:54 pm 21:54 Clear 79 26.1 71 21.7 77 77 S 6 9 29.9 1012 10 16.0934 0 0
10:54 pm 22:54 Clear 78 25.6 71 21.7 79 79 S 6 9 29.9 1012 10 16.0934 0 0
11:54 pm 23:54 Clear 77 25 71 21.7 82 82 SSW 5 7 29.9 1012 10 16.0934 0 0

Powered by AerisWeather